sensor_id;sensor_type;location;lat;lon;timestamp;temperature;humidity
5554;DHT22;2800;49.528;8.666;2022-12-10T00:01:23;1.60;99.90
5554;DHT22;2800;49.528;8.666;2022-12-10T00:03:50;1.50;99.90
5554;DHT22;2800;49.528;8.666;2022-12-10T00:06:19;1.50;99.90
5554;DHT22;2800;49.528;8.666;2022-12-10T00:08:46;1.50;99.90
5554;DHT22;2800;49.528;8.666;2022-12-10T00:11:13;1.60;99.90
5554;DHT22;2800;49.528;8.666;2022-12-10T00:13:39;1.60;99.90
5554;DHT22;2800;49.528;8.666;2022-12-10T00:16:07;1.50;99.90
5554;DHT22;2800;49.528;8.666;2022-12-10T00:18:33;1.50;99.90
5554;DHT22;2800;49.528;8.666;2022-12-10T00:21:02;1.50;99.90
5554;DHT22;2800;49.528;8.666;2022-12-10T00:23:28;1.40;99.90
5554;DHT22;2800;49.528;8.666;2022-12-10T00:26:02;1.40;99.90
5554;DHT22;2800;49.528;8.666;2022-12-10T00:28:28;1.40;99.90
5554;DHT22;2800;49.528;8.666;2022-12-10T00:30:53;1.50;99.90
5554;DHT22;2800;49.528;8.666;2022-12-10T00:33:19;1.50;99.90
5554;DHT22;2800;49.528;8.666;2022-12-10T00:35:44;1.40;99.90
5554;DHT22;2800;49.528;8.666;2022-12-10T00:38:09;1.50;99.90
5554;DHT22;2800;49.528;8.666;2022-12-10T00:40:35;1.50;99.90
5554;DHT22;2800;49.528;8.666;2022-12-10T00:43:00;1.60;99.90
5554;DHT22;2800;49.528;8.666;2022-12-10T00:45:26;1.60;99.90
5554;DHT22;2800;49.528;8.666;2022-12-10T00:47:51;1.60;99.90
5554;DHT22;2800;49.528;8.666;2022-12-10T00:50:17;1.60;99.90
5554;DHT22;2800;49.528;8.666;2022-12-10T00:52:42;1.50;99.90
5554;DHT22;2800;49.528;8.666;2022-12-10T00:55:08;1.40;99.90
5554;DHT22;2800;49.528;8.666;2022-12-10T00:57:33;1.50;99.90
5554;DHT22;2800;49.528;8.666;2022-12-10T00:59:59;1.50;99.90
5554;DHT22;2800;49.528;8.666;2022-12-10T01:02:24;1.60;99.90
5554;DHT22;2800;49.528;8.666;2022-12-10T01:04:53;1.60;99.90
5554;DHT22;2800;49.528;8.666;2022-12-10T01:07:19;1.70;99.90
5554;DHT22;2800;49.528;8.666;2022-12-10T01:09:44;1.60;99.90
5554;DHT22;2800;49.528;8.666;2022-12-10T01:12:10;1.60;99.90
5554;DHT22;2800;49.528;8.666;2022-12-10T01:14:35;1.60;99.90
5554;DHT22;2800;49.528;8.666;2022-12-10T01:17:03;1.60;99.90
5554;DHT22;2800;49.528;8.666;2022-12-10T01:19:31;1.60;99.90
5554;DHT22;2800;49.528;8.666;2022-12-10T01:21:57;1.60;99.90
5554;DHT22;2800;49.528;8.666;2022-12-10T01:24:25;1.60;99.90
5554;DHT22;2800;49.528;8.666;2022-12-10T01:26:51;1.60;99.90
5554;DHT22;2800;49.528;8.666;2022-12-10T01:29:17;1.60;99.90
5554;DHT22;2800;49.528;8.666;2022-12-10T01:31:43;1.60;99.90
5554;DHT22;2800;49.528;8.666;2022-12-10T01:34:12;1.70;99.90
5554;DHT22;2800;49.528;8.666;2022-12-10T01:36:43;1.60;99.90
5554;DHT22;2800;49.528;8.666;2022-12-10T01:39:11;1.50;99.90
5554;DHT22;2800;49.528;8.666;2022-12-10T01:41:43;1.50;99.90
5554;DHT22;2800;49.528;8.666;2022-12-10T01:46:40;1.50;99.90
5554;DHT22;2800;49.528;8.666;2022-12-10T01:49:08;1.50;99.90
5554;DHT22;2800;49.528;8.666;2022-12-10T01:51:36;1.50;99.90
5554;DHT22;2800;49.528;8.666;2022-12-10T01:54:05;1.50;99.90
5554;DHT22;2800;49.528;8.666;2022-12-10T01:56:35;1.60;99.90
5554;DHT22;2800;49.528;8.666;2022-12-10T01:59:02;1.60;99.90
5554;DHT22;2800;49.528;8.666;2022-12-10T02:06:44;1.40;99.90
5554;DHT22;2800;49.528;8.666;2022-12-10T02:12:30;1.40;99.90
5554;DHT22;2800;49.528;8.666;2022-12-10T02:15:02;1.50;99.90
5554;DHT22;2800;49.528;8.666;2022-12-10T02:17:37;1.50;99.90
5554;DHT22;2800;49.528;8.666;2022-12-10T02:20:18;1.50;99.90
5554;DHT22;2800;49.528;8.666;2022-12-10T02:22:49;1.50;99.90
5554;DHT22;2800;49.528;8.666;2022-12-10T02:25:18;1.50;99.90
5554;DHT22;2800;49.528;8.666;2022-12-10T02:27:46;1.50;99.90
5554;DHT22;2800;49.528;8.666;2022-12-10T02:30:14;1.50;99.90
5554;DHT22;2800;49.528;8.666;2022-12-10T02:32:41;1.40;99.90
5554;DHT22;2800;49.528;8.666;2022-12-10T02:35:16;1.40;99.90
5554;DHT22;2800;49.528;8.666;2022-12-10T02:37:53;1.40;99.90
5554;DHT22;2800;49.528;8.666;2022-12-10T02:40:23;1.40;99.90
5554;DHT22;2800;49.528;8.666;2022-12-10T02:42:51;1.40;99.90
5554;DHT22;2800;49.528;8.666;2022-12-10T02:45:18;1.30;99.90
5554;DHT22;2800;49.528;8.666;2022-12-10T02:47:46;1.30;99.90
5554;DHT22;2800;49.528;8.666;2022-12-10T02:50:13;1.30;99.90
5554;DHT22;2800;49.528;8.666;2022-12-10T02:52:39;1.30;99.90
5554;DHT22;2800;49.528;8.666;2022-12-10T02:55:05;1.30;99.90
5554;DHT22;2800;49.528;8.666;2022-12-10T02:57:56;1.30;99.90
5554;DHT22;2800;49.528;8.666;2022-12-10T03:00:25;1.30;99.90
5554;DHT22;2800;49.528;8.666;2022-12-10T03:11:19;1.20;99.90
5554;DHT22;2800;49.528;8.666;2022-12-10T03:14:13;1.20;99.90
5554;DHT22;2800;49.528;8.666;2022-12-10T03:16:45;1.20;99.90
5554;DHT22;2800;49.528;8.666;2022-12-10T03:19:14;1.20;99.90
5554;DHT22;2800;49.528;8.666;2022-12-10T03:21:41;1.20;99.90
5554;DHT22;2800;49.528;8.666;2022-12-10T03:24:09;1.20;99.90
5554;DHT22;2800;49.528;8.666;2022-12-10T03:26:37;1.10;99.90
5554;DHT22;2800;49.528;8.666;2022-12-10T03:29:06;1.10;99.90
5554;DHT22;2800;49.528;8.666;2022-12-10T03:31:34;1.10;99.90
5554;DHT22;2800;49.528;8.666;2022-12-10T03:34:00;1.10;99.90
5554;DHT22;2800;49.528;8.666;2022-12-10T03:36:27;1.10;99.90
5554;DHT22;2800;49.528;8.666;2022-12-10T03:38:54;1.10;99.90
5554;DHT22;2800;49.528;8.666;2022-12-10T03:41:19;1.10;99.90
5554;DHT22;2800;49.528;8.666;2022-12-10T03:44:11;1.10;99.90
5554;DHT22;2800;49.528;8.666;2022-12-10T03:46:37;1.10;99.90
5554;DHT22;2800;49.528;8.666;2022-12-10T03:49:04;1.10;99.90
5554;DHT22;2800;49.528;8.666;2022-12-10T03:51:29;1.00;99.90
5554;DHT22;2800;49.528;8.666;2022-12-10T03:53:55;1.00;99.90
5554;DHT22;2800;49.528;8.666;2022-12-10T03:56:21;0.90;99.90
5554;DHT22;2800;49.528;8.666;2022-12-10T03:58:46;0.90;99.90
5554;DHT22;2800;49.528;8.666;2022-12-10T04:01:12;1.00;99.90
5554;DHT22;2800;49.528;8.666;2022-12-10T04:03:40;1.00;99.90
5554;DHT22;2800;49.528;8.666;2022-12-10T04:06:08;0.90;99.90
5554;DHT22;2800;49.528;8.666;2022-12-10T04:08:35;0.90;99.90
5554;DHT22;2800;49.528;8.666;2022-12-10T04:11:05;1.10;99.90
5554;DHT22;2800;49.528;8.666;2022-12-10T04:13:32;1.00;99.90
5554;DHT22;2800;49.528;8.666;2022-12-10T04:16:17;1.10;99.90
5554;DHT22;2800;49.528;8.666;2022-12-10T04:19:06;1.00;99.90
5554;DHT22;2800;49.528;8.666;2022-12-10T04:21:34;0.90;99.90
5554;DHT22;2800;49.528;8.666;2022-12-10T04:24:22;0.90;99.90
5554;DHT22;2800;49.528;8.666;2022-12-10T04:27:12;1.00;99.90
5554;DHT22;2800;49.528;8.666;2022-12-10T04:29:38;0.90;99.90
5554;DHT22;2800;49.528;8.666;2022-12-10T04:32:04;0.90;99.90
5554;DHT22;2800;49.528;8.666;2022-12-10T04:34:29;0.90;99.90
5554;DHT22;2800;49.528;8.666;2022-12-10T04:36:57;0.90;99.90
5554;DHT22;2800;49.528;8.666;2022-12-10T04:39:22;0.80;99.90
5554;DHT22;2800;49.528;8.666;2022-12-10T04:41:48;0.80;99.90
5554;DHT22;2800;49.528;8.666;2022-12-10T04:44:14;0.70;99.90
5554;DHT22;2800;49.528;8.666;2022-12-10T04:46:40;0.70;99.90
5554;DHT22;2800;49.528;8.666;2022-12-10T04:49:06;0.70;99.90
5554;DHT22;2800;49.528;8.666;2022-12-10T04:51:32;0.80;99.90
5554;DHT22;2800;49.528;8.666;2022-12-10T04:53:58;0.70;99.90
5554;DHT22;2800;49.528;8.666;2022-12-10T04:56:24;0.60;99.90
5554;DHT22;2800;49.528;8.666;2022-12-10T04:58:49;0.60;99.90
5554;DHT22;2800;49.528;8.666;2022-12-10T05:01:15;0.60;99.90
5554;DHT22;2800;49.528;8.666;2022-12-10T05:03:41;0.70;99.90
5554;DHT22;2800;49.528;8.666;2022-12-10T05:06:09;0.60;99.90
5554;DHT22;2800;49.528;8.666;2022-12-10T05:08:36;0.80;99.90
5554;DHT22;2800;49.528;8.666;2022-12-10T05:11:08;0.80;99.90
5554;DHT22;2800;49.528;8.666;2022-12-10T05:13:34;0.80;99.90
5554;DHT22;2800;49.528;8.666;2022-12-10T05:16:04;0.80;99.90
5554;DHT22;2800;49.528;8.666;2022-12-10T05:18:30;0.80;99.90
5554;DHT22;2800;49.528;8.666;2022-12-10T05:21:04;0.80;99.90
5554;DHT22;2800;49.528;8.666;2022-12-10T05:23:30;0.80;99.90
5554;DHT22;2800;49.528;8.666;2022-12-10T05:28:24;0.70;99.90
5554;DHT22;2800;49.528;8.666;2022-12-10T05:30:50;0.70;99.90
5554;DHT22;2800;49.528;8.666;2022-12-10T05:33:15;0.70;99.90
5554;DHT22;2800;49.528;8.666;2022-12-10T05:35:41;0.80;99.90
5554;DHT22;2800;49.528;8.666;2022-12-10T05:38:06;0.70;99.90
5554;DHT22;2800;49.528;8.666;2022-12-10T05:40:38;0.90;99.90
5554;DHT22;2800;49.528;8.666;2022-12-10T05:43:04;0.70;99.90
5554;DHT22;2800;49.528;8.666;2022-12-10T05:45:31;0.70;99.90
5554;DHT22;2800;49.528;8.666;2022-12-10T05:47:57;0.70;99.90
5554;DHT22;2800;49.528;8.666;2022-12-10T05:50:22;0.70;99.90
5554;DHT22;2800;49.528;8.666;2022-12-10T05:52:50;0.70;99.90
5554;DHT22;2800;49.528;8.666;2022-12-10T05:55:16;0.70;99.90
5554;DHT22;2800;49.528;8.666;2022-12-10T05:57:42;0.70;99.90
5554;DHT22;2800;49.528;8.666;2022-12-10T06:00:08;0.80;99.90
5554;DHT22;2800;49.528;8.666;2022-12-10T06:02:33;0.70;99.90
5554;DHT22;2800;49.528;8.666;2022-12-10T06:04:59;0.60;99.90
5554;DHT22;2800;49.528;8.666;2022-12-10T06:07:25;0.60;99.90
5554;DHT22;2800;49.528;8.666;2022-12-10T06:09:50;0.70;99.90
5554;DHT22;2800;49.528;8.666;2022-12-10T06:12:16;0.60;99.90
5554;DHT22;2800;49.528;8.666;2022-12-10T06:14:41;0.70;99.90
5554;DHT22;2800;49.528;8.666;2022-12-10T06:17:08;0.80;99.90
5554;DHT22;2800;49.528;8.666;2022-12-10T06:19:33;0.80;99.90
5554;DHT22;2800;49.528;8.666;2022-12-10T06:21:59;0.70;99.90
5554;DHT22;2800;49.528;8.666;2022-12-10T06:24:25;0.70;99.90
5554;DHT22;2800;49.528;8.666;2022-12-10T06:26:50;0.70;99.90
5554;DHT22;2800;49.528;8.666;2022-12-10T06:29:16;0.70;99.90
5554;DHT22;2800;49.528;8.666;2022-12-10T06:31:42;0.60;99.90
5554;DHT22;2800;49.528;8.666;2022-12-10T06:34:07;0.50;99.90
5554;DHT22;2800;49.528;8.666;2022-12-10T06:36:33;0.50;99.90
5554;DHT22;2800;49.528;8.666;2022-12-10T06:38:58;0.70;99.90
5554;DHT22;2800;49.528;8.666;2022-12-10T06:41:24;0.60;99.90
5554;DHT22;2800;49.528;8.666;2022-12-10T06:43:50;0.60;99.90
5554;DHT22;2800;49.528;8.666;2022-12-10T06:46:17;0.60;99.90
5554;DHT22;2800;49.528;8.666;2022-12-10T06:48:43;0.60;99.90
5554;DHT22;2800;49.528;8.666;2022-12-10T06:51:10;0.60;99.90
5554;DHT22;2800;49.528;8.666;2022-12-10T06:53:37;0.60;99.90
5554;DHT22;2800;49.528;8.666;2022-12-10T06:56:03;0.70;99.90
5554;DHT22;2800;49.528;8.666;2022-12-10T06:58:30;0.60;99.90
5554;DHT22;2800;49.528;8.666;2022-12-10T07:01:07;0.80;99.90
5554;DHT22;2800;49.528;8.666;2022-12-10T07:03:33;0.70;99.90
5554;DHT22;2800;49.528;8.666;2022-12-10T07:06:00;0.70;99.90
5554;DHT22;2800;49.528;8.666;2022-12-10T07:08:26;0.70;99.90
5554;DHT22;2800;49.528;8.666;2022-12-10T07:10:52;0.80;99.90
5554;DHT22;2800;49.528;8.666;2022-12-10T07:13:17;0.70;99.90
5554;DHT22;2800;49.528;8.666;2022-12-10T07:15:43;0.70;99.90
5554;DHT22;2800;49.528;8.666;2022-12-10T07:18:08;0.70;99.90
5554;DHT22;2800;49.528;8.666;2022-12-10T07:20:34;0.80;99.90
5554;DHT22;2800;49.528;8.666;2022-12-10T07:22:59;0.70;99.90
5554;DHT22;2800;49.528;8.666;2022-12-10T07:25:25;0.60;99.90
5554;DHT22;2800;49.528;8.666;2022-12-10T07:27:50;0.60;99.90
5554;DHT22;2800;49.528;8.666;2022-12-10T07:30:16;0.70;99.90
5554;DHT22;2800;49.528;8.666;2022-12-10T07:32:41;0.70;99.90
5554;DHT22;2800;49.528;8.666;2022-12-10T07:35:07;0.70;99.90
5554;DHT22;2800;49.528;8.666;2022-12-10T07:37:33;0.70;99.90
5554;DHT22;2800;49.528;8.666;2022-12-10T07:39:58;0.80;99.90
5554;DHT22;2800;49.528;8.666;2022-12-10T07:42:24;0.70;99.90
5554;DHT22;2800;49.528;8.666;2022-12-10T07:44:50;0.80;99.90
5554;DHT22;2800;49.528;8.666;2022-12-10T07:47:15;0.80;99.90
5554;DHT22;2800;49.528;8.666;2022-12-10T07:49:41;0.80;99.90
5554;DHT22;2800;49.528;8.666;2022-12-10T07:52:08;0.80;99.90
5554;DHT22;2800;49.528;8.666;2022-12-10T07:54:33;0.80;99.90
5554;DHT22;2800;49.528;8.666;2022-12-10T07:56:59;0.90;99.90
5554;DHT22;2800;49.528;8.666;2022-12-10T07:59:25;0.90;99.90
5554;DHT22;2800;49.528;8.666;2022-12-10T08:01:50;0.90;99.90
5554;DHT22;2800;49.528;8.666;2022-12-10T08:04:16;0.80;99.90
5554;DHT22;2800;49.528;8.666;2022-12-10T08:06:41;0.80;99.90
5554;DHT22;2800;49.528;8.666;2022-12-10T08:09:07;0.80;99.90
5554;DHT22;2800;49.528;8.666;2022-12-10T08:11:34;0.90;99.90
5554;DHT22;2800;49.528;8.666;2022-12-10T08:13:59;0.90;99.90
5554;DHT22;2800;49.528;8.666;2022-12-10T08:16:27;0.90;99.90
5554;DHT22;2800;49.528;8.666;2022-12-10T08:18:54;1.00;99.90
5554;DHT22;2800;49.528;8.666;2022-12-10T08:21:22;1.00;99.90
5554;DHT22;2800;49.528;8.666;2022-12-10T08:23:47;1.00;99.90
5554;DHT22;2800;49.528;8.666;2022-12-10T08:26:18;1.00;99.90
5554;DHT22;2800;49.528;8.666;2022-12-10T08:28:46;1.00;99.90
5554;DHT22;2800;49.528;8.666;2022-12-10T08:31:13;1.10;99.90
5554;DHT22;2800;49.528;8.666;2022-12-10T08:33:39;1.10;99.90
5554;DHT22;2800;49.528;8.666;2022-12-10T08:36:06;1.00;99.90
5554;DHT22;2800;49.528;8.666;2022-12-10T08:38:32;1.00;99.90
5554;DHT22;2800;49.528;8.666;2022-12-10T08:40:58;1.00;99.90
5554;DHT22;2800;49.528;8.666;2022-12-10T08:43:24;1.10;99.90
5554;DHT22;2800;49.528;8.666;2022-12-10T08:45:49;1.10;99.90
5554;DHT22;2800;49.528;8.666;2022-12-10T08:48:15;1.10;99.90
5554;DHT22;2800;49.528;8.666;2022-12-10T08:50:41;1.10;99.90
5554;DHT22;2800;49.528;8.666;2022-12-10T08:53:06;1.10;99.90
5554;DHT22;2800;49.528;8.666;2022-12-10T08:55:33;1.20;99.90
5554;DHT22;2800;49.528;8.666;2022-12-10T08:57:59;1.20;99.90
5554;DHT22;2800;49.528;8.666;2022-12-10T09:00:25;1.20;99.90
5554;DHT22;2800;49.528;8.666;2022-12-10T09:02:51;1.20;99.90
5554;DHT22;2800;49.528;8.666;2022-12-10T09:05:16;1.30;99.90
5554;DHT22;2800;49.528;8.666;2022-12-10T09:07:42;1.30;99.90
5554;DHT22;2800;49.528;8.666;2022-12-10T09:10:09;1.40;99.90
5554;DHT22;2800;49.528;8.666;2022-12-10T09:12:36;1.50;99.90
5554;DHT22;2800;49.528;8.666;2022-12-10T09:15:01;1.50;99.90
5554;DHT22;2800;49.528;8.666;2022-12-10T09:17:27;1.50;99.90
5554;DHT22;2800;49.528;8.666;2022-12-10T09:19:52;1.50;99.90
5554;DHT22;2800;49.528;8.666;2022-12-10T09:22:18;1.50;99.90
5554;DHT22;2800;49.528;8.666;2022-12-10T09:24:43;1.50;99.90
5554;DHT22;2800;49.528;8.666;2022-12-10T09:27:09;1.40;99.90
5554;DHT22;2800;49.528;8.666;2022-12-10T09:29:34;1.40;99.90
5554;DHT22;2800;49.528;8.666;2022-12-10T09:32:00;1.40;99.90
5554;DHT22;2800;49.528;8.666;2022-12-10T09:34:25;1.40;99.90
5554;DHT22;2800;49.528;8.666;2022-12-10T09:36:51;1.50;99.90
5554;DHT22;2800;49.528;8.666;2022-12-10T09:39:16;1.60;99.90
5554;DHT22;2800;49.528;8.666;2022-12-10T09:42:02;1.70;99.90
5554;DHT22;2800;49.528;8.666;2022-12-10T09:47:40;1.70;99.90
5554;DHT22;2800;49.528;8.666;2022-12-10T09:50:20;1.60;99.90
5554;DHT22;2800;49.528;8.666;2022-12-10T09:52:48;1.60;99.90
5554;DHT22;2800;49.528;8.666;2022-12-10T09:57:55;2.00;99.90
5554;DHT22;2800;49.528;8.666;2022-12-10T10:00:35;2.30;99.90
5554;DHT22;2800;49.528;8.666;2022-12-10T10:03:02;2.70;99.90
5554;DHT22;2800;49.528;8.666;2022-12-10T10:05:31;3.00;99.90
5554;DHT22;2800;49.528;8.666;2022-12-10T10:08:01;3.10;99.90
5554;DHT22;2800;49.528;8.666;2022-12-10T10:10:28;3.30;99.90
5554;DHT22;2800;49.528;8.666;2022-12-10T10:13:09;3.50;99.90
5554;DHT22;2800;49.528;8.666;2022-12-10T10:15:39;3.50;99.90
5554;DHT22;2800;49.528;8.666;2022-12-10T10:20:57;3.60;99.90
5554;DHT22;2800;49.528;8.666;2022-12-10T10:23:23;3.20;99.90
5554;DHT22;2800;49.528;8.666;2022-12-10T10:25:49;3.10;99.90
5554;DHT22;2800;49.528;8.666;2022-12-10T10:28:20;3.10;99.90
5554;DHT22;2800;49.528;8.666;2022-12-10T10:30:46;3.10;99.90
5554;DHT22;2800;49.528;8.666;2022-12-10T10:33:14;3.00;99.90
5554;DHT22;2800;49.528;8.666;2022-12-10T10:36:09;2.80;99.90
5554;DHT22;2800;49.528;8.666;2022-12-10T10:38:36;3.00;99.90
5554;DHT22;2800;49.528;8.666;2022-12-10T10:41:03;3.20;99.90
5554;DHT22;2800;49.528;8.666;2022-12-10T10:43:34;3.30;99.90
5554;DHT22;2800;49.528;8.666;2022-12-10T10:46:22;3.20;99.90
5554;DHT22;2800;49.528;8.666;2022-12-10T10:48:49;3.30;99.90
5554;DHT22;2800;49.528;8.666;2022-12-10T10:51:18;3.40;99.90
5554;DHT22;2800;49.528;8.666;2022-12-10T10:53:50;3.40;99.90
5554;DHT22;2800;49.528;8.666;2022-12-10T10:56:25;3.40;99.90
5554;DHT22;2800;49.528;8.666;2022-12-10T10:59:07;3.50;99.90
5554;DHT22;2800;49.528;8.666;2022-12-10T11:01:48;3.50;99.90
5554;DHT22;2800;49.528;8.666;2022-12-10T11:04:16;3.60;99.90
5554;DHT22;2800;49.528;8.666;2022-12-10T11:06:42;3.60;99.90
5554;DHT22;2800;49.528;8.666;2022-12-10T11:09:13;3.60;99.90
5554;DHT22;2800;49.528;8.666;2022-12-10T11:11:50;3.60;99.90
5554;DHT22;2800;49.528;8.666;2022-12-10T11:14:24;3.60;99.90
5554;DHT22;2800;49.528;8.666;2022-12-10T11:17:00;3.60;99.90
5554;DHT22;2800;49.528;8.666;2022-12-10T11:19:26;3.60;99.90
5554;DHT22;2800;49.528;8.666;2022-12-10T11:21:52;3.50;99.90
5554;DHT22;2800;49.528;8.666;2022-12-10T11:24:19;3.60;99.90
5554;DHT22;2800;49.528;8.666;2022-12-10T11:27:03;3.50;99.90
5554;DHT22;2800;49.528;8.666;2022-12-10T11:29:45;3.60;99.90
5554;DHT22;2800;49.528;8.666;2022-12-10T11:32:43;4.00;99.90
5554;DHT22;2800;49.528;8.666;2022-12-10T11:35:19;4.60;99.90
5554;DHT22;2800;49.528;8.666;2022-12-10T11:38:03;5.00;99.90
5554;DHT22;2800;49.528;8.666;2022-12-10T11:40:42;4.90;99.90
5554;DHT22;2800;49.528;8.666;2022-12-10T11:43:36;4.40;99.90
5554;DHT22;2800;49.528;8.666;2022-12-10T11:49:42;3.50;99.90
5554;DHT22;2800;49.528;8.666;2022-12-10T11:55:18;3.40;99.90
5554;DHT22;2800;49.528;8.666;2022-12-10T12:00:50;3.20;99.90
5554;DHT22;2800;49.528;8.666;2022-12-10T12:03:27;3.10;99.90
5554;DHT22;2800;49.528;8.666;2022-12-10T12:14:26;4.70;99.90
5554;DHT22;2800;49.528;8.666;2022-12-10T12:17:26;4.70;99.90
5554;DHT22;2800;49.528;8.666;2022-12-10T12:19:56;5.60;99.90
5554;DHT22;2800;49.528;8.666;2022-12-10T12:22:33;5.50;99.90
5554;DHT22;2800;49.528;8.666;2022-12-10T12:25:05;5.30;99.90
5554;DHT22;2800;49.528;8.666;2022-12-10T12:30:03;5.00;99.90
5554;DHT22;2800;49.528;8.666;2022-12-10T12:43:34;5.30;99.90
5554;DHT22;2800;49.528;8.666;2022-12-10T12:46:09;4.80;99.90
5554;DHT22;2800;49.528;8.666;2022-12-10T12:51:36;4.00;99.90
5554;DHT22;2800;49.528;8.666;2022-12-10T12:54:04;3.70;99.90
5554;DHT22;2800;49.528;8.666;2022-12-10T12:59:31;3.40;99.90
5554;DHT22;2800;49.528;8.666;2022-12-10T13:04:34;3.40;99.90
5554;DHT22;2800;49.528;8.666;2022-12-10T13:09:52;3.60;99.90
5554;DHT22;2800;49.528;8.666;2022-12-10T13:12:47;3.80;99.90
5554;DHT22;2800;49.528;8.666;2022-12-10T13:18:05;3.70;99.90
5554;DHT22;2800;49.528;8.666;2022-12-10T13:20:50;3.70;99.90
5554;DHT22;2800;49.528;8.666;2022-12-10T13:39:20;3.10;99.90
5554;DHT22;2800;49.528;8.666;2022-12-10T13:45:00;3.10;99.90
5554;DHT22;2800;49.528;8.666;2022-12-10T13:50:02;2.90;99.90
5554;DHT22;2800;49.528;8.666;2022-12-10T13:55:22;2.80;99.90
5554;DHT22;2800;49.528;8.666;2022-12-10T13:58:21;2.70;99.90
5554;DHT22;2800;49.528;8.666;2022-12-10T14:01:01;2.70;99.90
5554;DHT22;2800;49.528;8.666;2022-12-10T14:06:18;2.60;99.90
5554;DHT22;2800;49.528;8.666;2022-12-10T14:09:02;2.60;99.90
5554;DHT22;2800;49.528;8.666;2022-12-10T14:11:32;2.60;99.90
5554;DHT22;2800;49.528;8.666;2022-12-10T14:14:01;2.50;99.90
5554;DHT22;2800;49.528;8.666;2022-12-10T14:16:29;2.50;99.90
5554;DHT22;2800;49.528;8.666;2022-12-10T14:19:07;2.40;99.90
5554;DHT22;2800;49.528;8.666;2022-12-10T14:21:35;2.50;99.90
5554;DHT22;2800;49.528;8.666;2022-12-10T14:24:02;2.40;99.90
5554;DHT22;2800;49.528;8.666;2022-12-10T14:26:36;2.40;99.90
5554;DHT22;2800;49.528;8.666;2022-12-10T14:29:17;2.30;99.90
5554;DHT22;2800;49.528;8.666;2022-12-10T14:31:47;2.30;99.90
5554;DHT22;2800;49.528;8.666;2022-12-10T14:34:17;2.30;99.90
5554;DHT22;2800;49.528;8.666;2022-12-10T14:36:48;2.30;99.90
5554;DHT22;2800;49.528;8.666;2022-12-10T14:39:17;2.20;99.90
5554;DHT22;2800;49.528;8.666;2022-12-10T14:41:44;2.20;99.90
5554;DHT22;2800;49.528;8.666;2022-12-10T14:44:13;2.20;99.90
5554;DHT22;2800;49.528;8.666;2022-12-10T14:46:39;2.20;99.90
5554;DHT22;2800;49.528;8.666;2022-12-10T14:49:08;2.20;99.90
5554;DHT22;2800;49.528;8.666;2022-12-10T14:51:39;2.30;99.90
5554;DHT22;2800;49.528;8.666;2022-12-10T14:54:44;2.30;99.90
5554;DHT22;2800;49.528;8.666;2022-12-10T14:57:13;2.30;99.90
5554;DHT22;2800;49.528;8.666;2022-12-10T14:59:43;2.30;99.90
5554;DHT22;2800;49.528;8.666;2022-12-10T15:04:45;2.30;99.90
5554;DHT22;2800;49.528;8.666;2022-12-10T15:07:14;2.30;99.90
5554;DHT22;2800;49.528;8.666;2022-12-10T15:09:42;2.30;99.90
5554;DHT22;2800;49.528;8.666;2022-12-10T15:12:38;2.20;99.90
5554;DHT22;2800;49.528;8.666;2022-12-10T15:15:30;2.20;99.90
5554;DHT22;2800;49.528;8.666;2022-12-10T15:20:31;2.20;99.90
5554;DHT22;2800;49.528;8.666;2022-12-10T15:23:17;2.20;99.90
5554;DHT22;2800;49.528;8.666;2022-12-10T15:28:34;2.20;99.90
5554;DHT22;2800;49.528;8.666;2022-12-10T15:31:22;2.20;99.90
5554;DHT22;2800;49.528;8.666;2022-12-10T15:34:00;2.00;99.90
5554;DHT22;2800;49.528;8.666;2022-12-10T15:36:39;1.90;99.90
5554;DHT22;2800;49.528;8.666;2022-12-10T15:41:56;1.80;99.90
5554;DHT22;2800;49.528;8.666;2022-12-10T15:47:02;1.70;99.90
5554;DHT22;2800;49.528;8.666;2022-12-10T15:49:29;1.60;99.90
5554;DHT22;2800;49.528;8.666;2022-12-10T15:51:56;1.60;99.90
5554;DHT22;2800;49.528;8.666;2022-12-10T15:56:51;1.50;99.90
5554;DHT22;2800;49.528;8.666;2022-12-10T15:59:17;1.40;99.90
5554;DHT22;2800;49.528;8.666;2022-12-10T16:01:42;1.40;99.90
5554;DHT22;2800;49.528;8.666;2022-12-10T16:04:09;1.20;99.90
5554;DHT22;2800;49.528;8.666;2022-12-10T16:06:34;1.10;99.90
5554;DHT22;2800;49.528;8.666;2022-12-10T16:09:00;1.10;99.90
5554;DHT22;2800;49.528;8.666;2022-12-10T16:11:25;1.20;99.90
5554;DHT22;2800;49.528;8.666;2022-12-10T16:13:53;0.90;99.90
5554;DHT22;2800;49.528;8.666;2022-12-10T16:16:20;0.80;99.90
5554;DHT22;2800;49.528;8.666;2022-12-10T16:18:46;0.70;99.90
5554;DHT22;2800;49.528;8.666;2022-12-10T16:21:12;0.70;99.90
5554;DHT22;2800;49.528;8.666;2022-12-10T16:23:37;0.60;99.90
5554;DHT22;2800;49.528;8.666;2022-12-10T16:28:41;0.50;99.90
5554;DHT22;2800;49.528;8.666;2022-12-10T16:31:09;0.50;99.90
5554;DHT22;2800;49.528;8.666;2022-12-10T16:33:35;0.40;99.90
5554;DHT22;2800;49.528;8.666;2022-12-10T16:36:01;0.40;99.90
5554;DHT22;2800;49.528;8.666;2022-12-10T16:38:27;0.40;99.90
5554;DHT22;2800;49.528;8.666;2022-12-10T16:40:53;0.10;99.90
5554;DHT22;2800;49.528;8.666;2022-12-10T16:43:21;0.20;99.90
5554;DHT22;2800;49.528;8.666;2022-12-10T16:45:48;0.10;99.90
5554;DHT22;2800;49.528;8.666;2022-12-10T16:48:14;0.10;99.90
5554;DHT22;2800;49.528;8.666;2022-12-10T16:50:41;0.10;99.90
5554;DHT22;2800;49.528;8.666;2022-12-10T16:53:27;0.10;99.90
5554;DHT22;2800;49.528;8.666;2022-12-10T16:55:55;0.10;99.90
5554;DHT22;2800;49.528;8.666;2022-12-10T16:58:24;0.00;99.90
5554;DHT22;2800;49.528;8.666;2022-12-10T17:00:51;0.00;99.90
5554;DHT22;2800;49.528;8.666;2022-12-10T17:03:21;0.00;99.90
5554;DHT22;2800;49.528;8.666;2022-12-10T17:05:52;0.10;99.90
5554;DHT22;2800;49.528;8.666;2022-12-10T17:08:18;0.10;99.90
5554;DHT22;2800;49.528;8.666;2022-12-10T17:10:45;0.10;99.90
5554;DHT22;2800;49.528;8.666;2022-12-10T17:13:29;0.20;99.90
5554;DHT22;2800;49.528;8.666;2022-12-10T17:15:55;0.20;99.90
5554;DHT22;2800;49.528;8.666;2022-12-10T17:18:22;0.10;99.90
5554;DHT22;2800;49.528;8.666;2022-12-10T17:20:49;0.20;99.90
5554;DHT22;2800;49.528;8.666;2022-12-10T17:23:15;0.30;99.90
5554;DHT22;2800;49.528;8.666;2022-12-10T17:25:41;0.30;99.90
5554;DHT22;2800;49.528;8.666;2022-12-10T17:28:21;0.20;99.90
5554;DHT22;2800;49.528;8.666;2022-12-10T17:30:47;0.20;99.90
5554;DHT22;2800;49.528;8.666;2022-12-10T17:33:23;0.20;99.90
5554;DHT22;2800;49.528;8.666;2022-12-10T17:35:50;0.20;99.90
5554;DHT22;2800;49.528;8.666;2022-12-10T17:38:19;0.30;99.90
5554;DHT22;2800;49.528;8.666;2022-12-10T17:40:45;0.30;99.90
5554;DHT22;2800;49.528;8.666;2022-12-10T17:43:11;0.30;99.90
5554;DHT22;2800;49.528;8.666;2022-12-10T17:45:37;0.40;99.90
5554;DHT22;2800;49.528;8.666;2022-12-10T17:48:03;0.30;99.90
5554;DHT22;2800;49.528;8.666;2022-12-10T17:50:36;0.20;99.90
5554;DHT22;2800;49.528;8.666;2022-12-10T17:53:04;0.20;99.90
5554;DHT22;2800;49.528;8.666;2022-12-10T17:55:31;0.20;99.90
5554;DHT22;2800;49.528;8.666;2022-12-10T17:57:57;0.20;99.90
5554;DHT22;2800;49.528;8.666;2022-12-10T18:00:25;0.10;99.90
5554;DHT22;2800;49.528;8.666;2022-12-10T18:02:51;0.20;99.90
5554;DHT22;2800;49.528;8.666;2022-12-10T18:05:17;0.10;99.90
5554;DHT22;2800;49.528;8.666;2022-12-10T18:07:42;0.10;99.90
5554;DHT22;2800;49.528;8.666;2022-12-10T18:10:18;0.10;99.90
5554;DHT22;2800;49.528;8.666;2022-12-10T18:12:44;0.20;99.90
5554;DHT22;2800;49.528;8.666;2022-12-10T18:15:13;0.20;99.90
5554;DHT22;2800;49.528;8.666;2022-12-10T18:17:39;0.10;99.90
5554;DHT22;2800;49.528;8.666;2022-12-10T18:20:05;0.20;99.90
5554;DHT22;2800;49.528;8.666;2022-12-10T18:22:33;0.10;99.90
5554;DHT22;2800;49.528;8.666;2022-12-10T18:25:00;0.00;99.90
5554;DHT22;2800;49.528;8.666;2022-12-10T18:27:25;0.00;99.90
5554;DHT22;2800;49.528;8.666;2022-12-10T18:29:51;0.00;99.90
5554;DHT22;2800;49.528;8.666;2022-12-10T18:32:16;-0.10;99.90